Time;durP1;ratioP1;P1;durP2;ratioP2;P2;SDS_P1;SDS_P2;PMS_P1;PMS_P2;Temp;Humidity;BMP_temperature;BMP_pressure;BME280_temperature;BME280_humidity;BME280_pressure;Samples;Min_cycle;Max_cycle;Signal;HPM_P1;HPM_P2
2020/12/02 00:00:11;;;;;;;37.92;14.45;;;;;;;10.21;52.37;100587.41;5014845;28;20036;-75
2020/12/02 00:02:44;;;;;;;35.22;13.70;;;;;;;10.08;52.33;100583.75;5033653;28;20122;-74
2020/12/02 00:05:12;;;;;;;30.92;12.95;;;;;;;9.86;53.14;100584.44;5035401;28;20085;-76
2020/12/02 00:07:41;;;;;;;31.80;12.93;;;;;;;10.27;52.21;100577.00;5020230;28;20056;-77
2020/12/02 00:10:07;;;;;;;35.75;12.90;;;;;;;10.24;52.52;100570.88;5033630;28;20475;-77
2020/12/02 00:12:33;;;;;;;34.97;12.70;;;;;;;10.20;52.63;100570.00;5022851;28;20040;-76
2020/12/02 00:15:05;;;;;;;27.13;12.43;;;;;;;10.24;52.54;100561.31;5037362;28;20392;-77
2020/12/02 00:17:31;;;;;;;27.55;12.52;;;;;;;10.37;52.17;100555.31;5028170;28;20403;-77
2020/12/02 00:19:56;;;;;;;34.08;12.80;;;;;;;10.76;51.42;100552.06;5027291;28;20041;-76
2020/12/02 00:22:23;;;;;;;27.13;12.73;;;;;;;10.40;51.74;100547.50;5043849;28;20040;-76
2020/12/02 00:24:53;;;;;;;30.60;14.05;;;;;;;10.40;52.16;100544.03;5041177;28;20070;-76
2020/12/02 00:27:29;;;;;;;28.15;12.43;;;;;;;10.60;51.77;100539.78;5029687;28;20028;-77
2020/12/02 00:29:55;;;;;;;29.67;11.88;;;;;;;10.70;51.52;100538.09;5026724;28;20040;-77
2020/12/02 00:32:31;;;;;;;28.25;12.15;;;;;;;10.79;51.85;100531.16;5042577;28;20056;-77
2020/12/02 00:34:58;;;;;;;26.83;11.93;;;;;;;10.92;51.59;100529.50;5040668;28;20055;-77
2020/12/02 00:37:25;;;;;;;24.92;11.52;;;;;;;10.62;53.48;100526.72;5026810;28;20060;-77
2020/12/02 00:39:52;;;;;;;36.53;13.23;;;;;;;10.15;54.11;100522.03;5043189;28;20392;-76
2020/12/02 00:42:19;;;;;;;40.53;13.75;;;;;;;10.47;52.80;100532.72;5026177;28;20067;-77
2020/12/02 00:44:45;;;;;;;34.78;12.90;;;;;;;11.08;51.33;100531.28;5057070;28;20349;-77
2020/12/02 00:47:14;;;;;;;27.10;13.18;;;;;;;10.97;51.63;100530.41;5040834;28;20039;-76
2020/12/02 00:49:40;;;;;;;33.00;13.00;;;;;;;11.33;50.76;100522.66;5055375;28;20029;-77
2020/12/02 00:52:07;;;;;;;37.65;13.35;;;;;;;11.50;50.26;100521.84;5057145;28;20116;-76
2020/12/02 00:54:34;;;;;;;37.15;13.02;;;;;;;11.27;50.46;100511.34;5025406;28;20254;-77
2020/12/02 00:57:01;;;;;;;46.05;16.48;;;;;;;11.05;50.76;100513.00;5043393;28;20476;-77
2020/12/02 00:59:31;;;;;;;37.17;14.30;;;;;;;10.55;51.90;100502.28;5025294;28;20410;-76
2020/12/02 01:02:28;;;;;;;41.25;14.05;;;;;;;10.28;53.23;100499.53;5025422;28;20039;-79
2020/12/02 01:04:53;;;;;;;43.33;16.27;;;;;;;10.08;53.87;100496.72;5060628;28;20032;-77
2020/12/02 01:07:20;;;;;;;43.60;14.80;;;;;;;10.14;54.27;100493.31;5042819;28;20036;-76
2020/12/02 01:09:46;;;;;;;43.30;13.52;;;;;;;10.14;53.98;100495.91;5042383;28;20036;-76
2020/12/02 01:12:15;;;;;;;44.38;13.77;;;;;;;10.40;53.69;100492.66;5039581;28;21249;-77
2020/12/02 01:14:43;;;;;;;35.92;13.85;;;;;;;10.74;53.16;100482.38;5058200;28;20151;-77
2020/12/02 01:17:12;;;;;;;41.30;14.70;;;;;;;10.84;52.51;100473.69;5026389;28;20071;-78
2020/12/02 01:19:38;;;;;;;34.97;13.68;;;;;;;10.91;52.38;100478.09;5022741;28;20043;-78
2020/12/02 01:22:23;;;;;;;37.33;13.77;;;;;;;10.66;52.72;100476.22;5023716;28;20122;-77
2020/12/02 01:24:57;;;;;;;35.50;12.30;;;;;;;10.71;53.09;100464.06;5040070;28;20124;-77
2020/12/02 01:27:29;;;;;;;33.90;12.70;;;;;;;10.99;52.16;100459.78;5025181;28;20534;-78
2020/12/02 01:29:56;;;;;;;30.50;12.90;;;;;;;11.00;52.17;100453.69;5021335;28;20040;-77
2020/12/02 01:32:21;;;;;;;38.65;13.35;;;;;;;10.81;52.63;100451.03;5021427;28;20044;-77
2020/12/02 01:34:49;;;;;;;36.38;11.90;;;;;;;11.11;51.99;100458.09;5041674;28;20385;-77
2020/12/02 01:37:23;;;;;;;39.03;13.73;;;;;;;11.02;52.30;100460.69;5022485;28;20095;-77
2020/12/02 01:40:20;;;;;;;32.72;12.20;;;;;;;10.86;53.14;100448.44;5024434;28;20135;-77
2020/12/02 01:42:51;;;;;;;30.33;13.30;;;;;;;10.88;52.56;100438.88;5024526;28;20129;-77
2020/12/02 01:45:37;;;;;;;38.55;13.65;;;;;;;11.04;52.40;100442.38;5032869;28;20047;-78
2020/12/02 01:48:24;;;;;;;39.97;14.00;;;;;;;10.59;53.54;100430.03;5022031;28;20214;-77
2020/12/02 01:50:58;;;;;;;37.05;12.95;;;;;;;10.87;53.01;100432.78;5026238;28;20051;-77
2020/12/02 01:53:49;;;;;;;40.22;13.13;;;;;;;11.04;52.67;100432.78;5021406;28;20667;-78
2020/12/02 01:56:34;;;;;;;34.30;12.73;;;;;;;11.22;52.12;100427.59;5026797;28;20441;-77
2020/12/02 01:59:15;;;;;;;37.70;13.77;;;;;;;11.16;52.00;100430.22;5041546;28;20044;-77
2020/12/02 02:02:02;;;;;;;32.30;13.25;;;;;;;10.82;53.17;100423.16;5024223;28;20098;-77
2020/12/02 02:04:47;;;;;;;39.38;13.77;;;;;;;11.08;52.47;100418.00;5024894;28;20057;-78
2020/12/02 02:07:24;;;;;;;41.60;13.57;;;;;;;11.27;52.14;100422.41;5025124;28;20036;-78
2020/12/02 02:09:55;;;;;;;34.90;12.98;;;;;;;11.19;52.48;100425.00;5024514;28;20051;-77
2020/12/02 02:12:35;;;;;;;37.53;11.80;;;;;;;11.26;52.12;100413.69;5040476;28;20033;-79
2020/12/02 02:15:27;;;;;;;36.70;11.18;;;;;;;11.42;51.65;100404.09;5039934;28;20039;-77
2020/12/02 02:18:00;;;;;;;33.80;9.70;;;;;;;11.41;51.54;100404.97;5023539;28;20340;-78
2020/12/02 02:20:31;;;;;;;29.27;9.75;;;;;;;11.12;52.11;100398.84;5040302;28;20063;-78
2020/12/02 02:23:17;;;;;;;28.90;8.98;;;;;;;10.60;53.95;100395.22;5044715;28;20090;-77
2020/12/02 02:26:17;;;;;;;32.35;10.43;;;;;;;10.43;54.69;100382.94;5039620;28;20040;-78
2020/12/02 02:29:03;;;;;;;37.25;11.25;;;;;;;10.02;56.21;100372.25;5022858;28;20024;-77
2020/12/02 02:31:33;;;;;;;44.33;10.52;;;;;;;9.90;56.99;100360.88;5037923;28;20029;-78
2020/12/02 02:34:00;;;;;;;30.20;10.65;;;;;;;10.17;56.36;100352.38;5022264;28;20803;-78
2020/12/02 02:36:28;;;;;;;26.35;10.45;;;;;;;10.15;56.54;100346.22;5022070;28;20036;-76
2020/12/02 02:38:55;;;;;;;30.88;9.18;;;;;;;10.19;56.67;100345.41;5024273;28;20084;-77
2020/12/02 02:41:25;;;;;;;30.70;9.07;;;;;;;10.15;57.13;100341.88;5036166;28;20541;-77
2020/12/02 02:43:51;;;;;;;25.45;7.03;;;;;;;10.19;57.31;100338.44;5040098;28;20445;-77
2020/12/02 02:46:17;;;;;;;23.63;6.68;;;;;;;10.62;56.05;100339.47;5038545;28;20036;-77
2020/12/02 02:48:43;;;;;;;22.75;6.68;;;;;;;10.83;55.78;100336.91;5059450;28;20035;-78
2020/12/02 02:51:10;;;;;;;34.58;6.85;;;;;;;10.99;55.49;100329.06;5056985;28;20476;-77
2020/12/02 02:53:36;;;;;;;25.98;6.75;;;;;;;11.10;55.24;100325.59;5048228;28;20364;-77
2020/12/02 02:56:02;;;;;;;19.98;6.70;;;;;;;11.40;54.36;100318.63;5027671;28;20036;-77
2020/12/02 02:58:29;;;;;;;27.50;6.90;;;;;;;11.44;54.10;100316.00;5028025;28;20446;-77
2020/12/02 03:00:58;;;;;;;27.17;6.75;;;;;;;11.15;54.83;100309.91;5043998;28;20761;-77
2020/12/02 03:03:26;;;;;;;32.80;5.95;;;;;;;10.83;56.34;100302.06;5028195;28;20032;-77
2020/12/02 03:05:52;;;;;;;34.40;5.85;;;;;;;10.78;56.65;100294.22;5025868;28;20090;-77
2020/12/02 03:08:18;;;;;;;29.58;6.57;;;;;;;11.01;55.99;100289.00;5051019;28;20033;-77
2020/12/02 03:10:45;;;;;;;29.77;6.75;;;;;;;10.64;57.27;100290.72;5026932;28;20120;-78
2020/12/02 03:13:21;;;;;;;33.88;6.75;;;;;;;10.89;56.72;100300.31;5026725;28;20033;-77
2020/12/02 03:15:47;;;;;;;25.55;7.00;;;;;;;10.79;57.18;100308.16;5056544;28;20049;-77
2020/12/02 03:18:14;;;;;;;40.05;8.50;;;;;;;11.16;56.13;100294.25;5038133;28;20029;-77
2020/12/02 03:20:46;;;;;;;38.70;8.07;;;;;;;11.31;55.52;100299.47;5027485;28;20037;-77
2020/12/02 03:23:14;;;;;;;31.67;7.87;;;;;;;11.34;55.58;100291.59;5041930;28;20487;-78
2020/12/02 03:25:42;;;;;;;23.15;6.57;;;;;;;11.50;55.45;100296.81;5028410;28;20079;-78
2020/12/02 03:28:08;;;;;;;28.05;6.18;;;;;;;11.52;55.73;100297.66;5043675;28;20154;-78
2020/12/02 03:30:34;;;;;;;18.65;5.55;;;;;;;11.50;55.70;100282.00;5042513;28;20372;-78
2020/12/02 03:33:00;;;;;;;23.15;7.15;;;;;;;11.67;55.69;100279.31;5057270;28;20028;-78
2020/12/02 03:35:26;;;;;;;28.45;7.97;;;;;;;11.58;56.43;100272.38;5042351;28;20462;-77
2020/12/02 03:37:53;;;;;;;33.00;9.15;;;;;;;11.48;57.35;100272.38;5040501;28;20055;-78
2020/12/02 03:40:19;;;;;;;31.58;9.10;;;;;;;11.37;58.07;100275.91;5059937;28;20036;-77
2020/12/02 03:42:45;;;;;;;29.67;8.95;;;;;;;11.48;57.99;100272.38;5057682;28;20040;-77
2020/12/02 03:45:11;;;;;;;32.13;9.00;;;;;;;11.69;57.56;100268.00;5027097;28;20036;-78
2020/12/02 03:47:37;;;;;;;35.38;10.15;;;;;;;11.38;58.29;100269.78;5042167;28;20040;-78
2020/12/02 03:50:09;;;;;;;30.40;10.43;;;;;;;11.46;57.82;100259.34;5043303;28;20040;-78
2020/12/02 03:52:35;;;;;;;42.95;11.70;;;;;;;11.60;57.28;100259.31;5040436;28;20897;-77
2020/12/02 03:55:00;;;;;;;35.75;10.27;;;;;;;11.87;56.51;100258.38;5044544;28;20046;-78
2020/12/02 03:57:26;;;;;;;36.45;11.55;;;;;;;11.58;56.99;100261.91;5043879;28;20040;-78
2020/12/02 03:59:52;;;;;;;30.15;11.05;;;;;;;11.71;56.74;100254.88;5025228;28;20036;-78
2020/12/02 04:02:18;;;;;;;36.38;11.85;;;;;;;11.77;56.77;100247.06;5027544;28;20070;-78
2020/12/02 04:04:44;;;;;;;36.10;11.13;;;;;;;11.49;57.32;100247.97;5041886;28;20040;-78
2020/12/02 04:07:10;;;;;;;43.80;12.82;;;;;;;11.50;57.54;100250.59;5027438;28;21294;-77
2020/12/02 04:09:35;;;;;;;42.28;13.25;;;;;;;11.56;57.46;100249.72;5031968;28;20124;-78
2020/12/02 04:12:01;;;;;;;39.55;13.05;;;;;;;11.44;57.44;100252.34;5024337;28;20031;-77
2020/12/02 04:14:27;;;;;;;39.63;11.73;;;;;;;11.64;57.00;100247.94;5040033;28;20383;-78
2020/12/02 04:16:53;;;;;;;40.88;12.32;;;;;;;11.72;56.49;100243.53;5041276;28;20121;-77
2020/12/02 04:19:19;;;;;;;39.25;12.70;;;;;;;11.64;56.50;100238.34;5024722;28;20376;-79
2020/12/02 04:21:45;;;;;;;42.78;11.95;;;;;;;11.79;56.34;100230.47;5027826;28;20037;-78
2020/12/02 04:24:10;;;;;;;43.53;14.57;;;;;;;11.66;56.71;100223.50;5027466;28;20031;-77
2020/12/02 04:26:36;;;;;;;45.28;15.35;;;;;;;11.36;57.51;100226.22;5026462;28;20043;-78
2020/12/02 04:29:03;;;;;;;40.22;14.10;;;;;;;11.21;58.03;100226.25;5055758;28;20033;-77
2020/12/02 04:31:30;;;;;;;49.78;16.73;;;;;;;11.14;58.83;100217.53;5054709;28;20919;-78
2020/12/02 04:33:55;;;;;;;45.35;14.38;;;;;;;11.51;57.69;100205.22;5041829;28;20052;-78
2020/12/02 04:36:21;;;;;;;46.35;14.05;;;;;;;11.48;57.84;100204.38;5044926;28;20071;-78
2020/12/02 04:38:47;;;;;;;38.58;15.07;;;;;;;11.54;57.47;100197.38;5025783;28;20051;-78
2020/12/02 04:41:14;;;;;;;38.22;15.68;;;;;;;11.42;58.51;100197.41;5025915;28;20032;-79
2020/12/02 04:43:43;;;;;;;45.65;15.73;;;;;;;11.75;57.51;100188.59;5027907;28;20036;-79
2020/12/02 04:46:14;;;;;;;40.97;15.70;;;;;;;11.35;58.49;100183.50;5056527;28;20060;-78
2020/12/02 04:48:42;;;;;;;44.22;16.38;;;;;;;11.64;57.67;100178.16;5060154;28;20081;-78
2020/12/02 04:51:22;;;;;;;43.65;16.48;;;;;;;11.47;58.30;100166.00;5025117;28;20119;-78
2020/12/02 04:53:51;;;;;;;44.28;17.60;;;;;;;11.52;58.26;100166.84;5042812;28;20036;-78
2020/12/02 04:56:18;;;;;;;36.35;16.42;;;;;;;11.15;59.45;100161.75;5041694;28;20040;-77
2020/12/02 04:58:47;;;;;;;42.42;16.02;;;;;;;10.98;60.17;100155.69;5044147;28;20044;-78
2020/12/02 05:01:25;;;;;;;36.25;15.43;;;;;;;11.02;59.77;100146.97;5025509;28;20127;-79
2020/12/02 05:03:56;;;;;;;42.88;16.73;;;;;;;10.99;60.02;100143.44;5029385;28;20564;-78
2020/12/02 05:06:42;;;;;;;40.88;15.68;;;;;;;10.60;61.11;100140.00;5021743;28;20032;-77
2020/12/02 05:09:23;;;;;;;45.78;17.15;;;;;;;10.73;60.95;100143.50;5044841;28;20038;-77
2020/12/02 05:12:04;;;;;;;41.40;16.83;;;;;;;10.80;60.70;100145.22;5042400;28;20036;-78
2020/12/02 05:14:38;;;;;;;46.10;17.97;;;;;;;10.60;61.31;100129.56;5027582;28;20036;-78
2020/12/02 05:17:17;;;;;;;44.75;18.05;;;;;;;10.33;62.08;100133.06;5042513;28;20060;-78
2020/12/02 05:19:48;;;;;;;37.33;16.75;;;;;;;10.52;61.43;100130.44;5042606;28;20036;-78
2020/12/02 05:22:17;;;;;;;40.42;16.95;;;;;;;10.50;61.73;100133.09;5058123;28;20063;-78
2020/12/02 05:24:49;;;;;;;50.95;16.95;;;;;;;10.70;61.08;100133.91;5043435;28;20081;-78
2020/12/02 05:27:19;;;;;;;45.15;17.48;;;;;;;10.62;61.47;100127.84;5055277;28;20052;-77
2020/12/02 05:30:22;;;;;;;44.33;18.70;;;;;;;10.34;62.73;100124.38;5061194;28;20041;-79
2020/12/02 05:33:19;;;;;;;42.97;18.80;;;;;;;10.15;63.65;100117.34;5042245;28;20107;-79
2020/12/02 05:35:47;;;;;;;32.08;17.52;;;;;;;10.21;63.52;100117.41;4966490;28;20149;-77
2020/12/02 05:38:24;;;;;;;46.90;18.98;;;;;;;10.48;62.50;100106.06;4955465;28;20034;-77
2020/12/02 05:40:52;;;;;;;40.05;19.13;;;;;;;10.54;61.90;100097.38;4983355;28;20074;-77
2020/12/02 05:43:47;;;;;;;38.30;19.05;;;;;;;10.78;61.42;100097.34;4964297;28;20041;-78
2020/12/02 05:46:38;;;;;;;33.63;17.45;;;;;;;10.67;61.64;100094.75;4954362;28;20065;-79
2020/12/02 05:49:09;;;;;;;50.30;20.27;;;;;;;10.56;62.24;100085.16;4965421;28;20200;-77
2020/12/02 05:51:35;;;;;;;43.30;20.15;;;;;;;10.74;61.91;100078.16;4953101;28;20049;-77
2020/12/02 05:54:14;;;;;;;39.75;19.45;;;;;;;11.01;61.14;100074.63;4948864;28;20129;-78
2020/12/02 05:56:39;;;;;;;41.33;17.98;;;;;;;11.05;60.91;100078.97;4985450;28;20038;-77
2020/12/02 05:59:06;;;;;;;37.53;18.77;;;;;;;10.96;61.12;100086.84;4965564;28;20049;-77
2020/12/02 06:01:32;;;;;;;41.88;18.70;;;;;;;11.07;60.89;100074.63;4981476;28;20921;-76
2020/12/02 06:03:59;;;;;;;35.90;17.23;;;;;;;11.12;60.57;100072.84;4978534;28;20452;-76
2020/12/02 06:06:30;;;;;;;30.48;14.40;;;;;;;11.16;60.42;100069.34;4967140;28;20053;-78
2020/12/02 06:08:57;;;;;;;35.50;17.90;;;;;;;11.20;59.98;100064.97;4968557;28;20108;-78
2020/12/02 06:11:30;;;;;;;37.70;17.45;;;;;;;10.92;60.75;100057.22;4981987;28;20571;-76
2020/12/02 06:13:59;;;;;;;37.90;17.30;;;;;;;10.71;61.36;100049.44;5039252;28;20107;-78
2020/12/02 06:16:57;;;;;;;41.47;19.27;;;;;;;10.64;61.97;100046.84;5025125;28;20056;-78
2020/12/02 06:19:29;;;;;;;40.58;18.67;;;;;;;10.49;62.44;100055.59;4943967;28;20065;-77
2020/12/02 06:22:01;;;;;;;40.15;19.70;;;;;;;10.65;62.02;100046.81;4944866;28;20082;-77
2020/12/02 06:24:41;;;;;;;45.05;19.50;;;;;;;10.70;61.79;100037.22;4957680;28;20137;-78
2020/12/02 06:27:16;;;;;;;43.85;19.75;;;;;;;10.76;61.58;100033.75;4961270;28;20026;-78
2020/12/02 06:29:50;;;;;;;37.15;19.77;;;;;;;11.16;60.69;100021.41;4945297;28;20105;-77
2020/12/02 06:32:20;;;;;;;44.63;16.33;;;;;;;11.13;60.43;100021.41;4945569;28;20039;-77
2020/12/02 06:34:51;;;;;;;36.15;18.80;;;;;;;11.06;60.67;100017.97;4927607;28;20042;-78
2020/12/02 06:37:24;;;;;;;38.28;19.30;;;;;;;10.77;61.80;100015.44;4928193;28;20153;-77
2020/12/02 06:39:57;;;;;;;35.95;18.70;;;;;;;10.68;62.18;100006.78;4925769;28;20090;-78
2020/12/02 06:42:40;;;;;;;38.17;19.13;;;;;;;10.90;61.58;100003.19;4960594;28;20471;-78
2020/12/02 06:45:29;;;;;;;36.53;17.50;;;;;;;10.88;61.37;100004.97;4944451;28;20046;-77
2020/12/02 06:48:11;;;;;;;27.13;16.55;;;;;;;11.09;60.45;99999.63;4944539;28;20031;-78
2020/12/02 06:50:37;;;;;;;40.00;18.55;;;;;;;10.92;60.90;99997.09;4944483;28;20035;-79
2020/12/02 06:53:20;;;;;;;35.60;17.63;;;;;;;11.05;61.08;99990.06;4928508;28;20093;-77
2020/12/02 06:55:46;;;;;;;;;;;;;;;10.45;63.00;99978.94;5003974;28;20032;-79
2020/12/02 06:58:17;;;;;;;36.53;18.83;;;;;;;10.17;64.46;99976.41;5022422;28;20375;-78
2020/12/02 07:00:51;;;;;;;38.30;20.20;;;;;;;10.10;65.00;99974.63;5058734;28;20044;-77
2020/12/02 07:03:39;;;;;;;39.53;22.38;;;;;;;10.13;65.56;99961.56;5041587;28;20021;-77
2020/12/02 07:06:13;;;;;;;49.75;25.52;;;;;;;10.56;64.83;99951.94;5030699;28;20114;-76
2020/12/02 07:08:39;;;;;;;43.15;24.45;;;;;;;10.46;64.56;99946.72;5024949;28;20396;-77
2020/12/02 07:11:18;;;;;;;42.65;22.80;;;;;;;10.87;62.75;99935.28;5053657;28;20029;-77
2020/12/02 07:13:47;;;;;;;46.53;21.05;;;;;;;11.00;62.21;99952.63;5051887;28;20079;-78
2020/12/02 07:16:25;;;;;;;34.72;20.90;;;;;;;10.86;61.93;99965.75;5025567;28;20236;-78
2020/12/02 07:19:00;;;;;;;42.42;22.55;;;;;;;11.12;61.67;99968.25;4998662;28;20420;-78
2020/12/02 07:21:46;;;;;;;39.17;20.83;;;;;;;11.24;61.20;99972.53;5040498;28;20082;-77
2020/12/02 07:24:26;;;;;;;38.17;21.83;;;;;;;11.45;61.13;99977.66;5055102;28;20114;-77
2020/12/02 07:26:52;;;;;;;38.63;21.73;;;;;;;11.68;60.16;99980.09;5019862;28;20124;-76
2020/12/02 07:29:21;;;;;;;38.75;19.42;;;;;;;11.68;60.23;99982.72;5056778;28;20449;-77
2020/12/02 07:32:18;;;;;;;47.78;20.33;;;;;;;11.77;59.37;99982.69;5049450;28;20042;-76
2020/12/02 07:34:45;;;;;;;41.97;22.95;;;;;;;11.77;59.21;99985.31;5017589;28;20068;-76
2020/12/02 07:37:14;;;;;;;37.60;21.33;;;;;;;11.57;59.65;99976.69;5040336;28;20032;-75
2020/12/02 07:40:02;;;;;;;37.35;18.80;;;;;;;11.90;58.95;99984.31;5025772;28;20317;-74
2020/12/02 07:42:39;;;;;;;35.20;19.02;;;;;;;11.16;61.19;99980.44;5023981;28;20041;-76
2020/12/02 07:45:14;;;;;;;36.45;19.70;;;;;;;11.91;58.91;99969.47;5046258;28;20123;-77
2020/12/02 07:47:51;;;;;;;46.95;20.58;;;;;;;11.78;58.74;99973.97;5044289;28;20027;-76
2020/12/02 07:50:26;;;;;;;46.25;22.85;;;;;;;11.10;61.16;99953.44;5044552;28;20040;-77
2020/12/02 07:53:00;;;;;;;47.22;22.20;;;;;;;11.32;60.79;99963.75;5028305;28;20040;-76
2020/12/02 07:55:37;;;;;;;40.17;22.05;;;;;;;11.45;60.79;99963.69;5045774;28;20483;-77
2020/12/02 07:58:04;;;;;;;41.35;20.92;;;;;;;11.62;60.38;99959.19;5026281;28;20100;-77
2020/12/02 08:00:43;;;;;;;39.28;21.92;;;;;;;11.69;60.15;99966.16;5025701;28;20036;-76
2020/12/02 08:03:26;;;;;;;38.08;20.27;;;;;;;11.84;59.66;99957.34;5043970;28;20064;-76
2020/12/02 08:06:20;;;;;;;39.00;19.52;;;;;;;11.94;59.26;99944.13;5033216;28;20044;-77
2020/12/02 08:08:45;;;;;;;42.42;21.42;;;;;;;11.99;58.66;99947.56;5036294;28;20087;-77
2020/12/02 08:11:20;;;;;;;36.58;21.02;;;;;;;11.99;59.12;99947.56;5027671;28;20067;-78
2020/12/02 08:13:53;;;;;;;43.47;22.02;;;;;;;11.52;59.85;99950.56;5033710;28;20063;-76
2020/12/02 08:16:41;;;;;;;45.95;21.10;;;;;;;11.30;61.04;99935.91;5028965;28;20060;-76
2020/12/02 08:19:10;;;;;;;37.13;20.50;;;;;;;11.62;60.06;99940.88;5058841;28;20811;-76
2020/12/02 08:21:37;;;;;;;34.40;18.20;;;;;;;11.99;59.34;99951.97;5045404;28;20383;-76
2020/12/02 08:24:25;;;;;;;38.85;19.45;;;;;;;12.05;58.72;99934.44;5059067;28;20033;-77
2020/12/02 08:26:52;;;;;;;30.63;19.13;;;;;;;12.02;58.52;99931.84;5058679;28;20040;-77
2020/12/02 08:29:22;;;;;;;34.15;19.85;;;;;;;12.10;58.50;99930.03;5042780;28;20033;-77
2020/12/02 08:32:04;;;;;;;39.55;21.13;;;;;;;11.91;58.98;99933.69;5025159;28;20120;-76
2020/12/02 08:34:34;;;;;;;39.90;20.15;;;;;;;12.04;58.78;99932.69;5031383;28;20433;-77
2020/12/02 08:37:21;;;;;;;36.72;19.20;;;;;;;11.94;59.00;99930.19;5043093;28;20035;-78
2020/12/02 08:39:49;;;;;;;47.20;21.95;;;;;;;11.75;59.66;99925.09;5026762;28;20037;-78
2020/12/02 08:42:30;;;;;;;38.10;21.73;;;;;;;11.96;59.41;99910.97;5045855;28;20037;-77
2020/12/02 08:45:03;;;;;;;41.10;21.50;;;;;;;11.82;59.79;99907.59;5020532;28;20051;-75
2020/12/02 08:47:29;;;;;;;47.58;24.08;;;;;;;11.76;60.36;99920.72;5030358;28;20452;-77
2020/12/02 08:49:55;;;;;;;38.28;23.85;;;;;;;11.70;60.80;99905.91;5040775;28;20155;-77
2020/12/02 08:52:21;;;;;;;42.67;21.42;;;;;;;11.88;59.65;99888.38;5030742;28;20048;-75
2020/12/02 08:54:46;;;;;;;36.88;21.42;;;;;;;12.09;59.11;99885.50;5054935;28;20040;-76
2020/12/02 08:57:12;;;;;;;35.72;23.00;;;;;;;12.16;59.29;99882.81;5025543;28;20037;-76
2020/12/02 08:59:38;;;;;;;42.55;24.23;;;;;;;11.62;60.99;99876.34;5027509;28;20033;-75
2020/12/02 09:02:10;;;;;;;37.67;22.80;;;;;;;12.13;59.94;99888.06;5029072;28;20031;-76
2020/12/02 09:04:35;;;;;;;;;;;;;;;11.21;64.10;99884.53;5041472;28;20036;-78
2020/12/02 09:07:01;;;;;;;30.83;18.35;;;;;;;11.91;61.23;99880.47;5025425;28;19923;-77
2020/12/02 09:09:27;;;;;;;25.98;16.17;;;;;;;12.30;60.23;99877.44;5043297;28;20029;-77
2020/12/02 09:11:54;;;;;;;40.72;19.40;;;;;;;12.00;60.91;99873.38;5026406;28;20142;-76
2020/12/02 09:14:20;;;;;;;21.58;13.35;;;;;;;11.78;62.53;99869.25;5023016;28;20048;-77
2020/12/02 09:16:46;;;;;;;17.90;9.75;;;;;;;12.04;63.28;99867.22;5017456;28;20045;-76
2020/12/02 09:19:13;;;;;;;13.63;7.68;;;;;;;12.66;60.95;99866.47;5045056;28;20025;-74
2020/12/02 09:21:39;;;;;;;9.93;7.00;;;;;;;12.86;61.09;99860.97;5035541;28;20085;-76
2020/12/02 09:24:05;;;;;;;12.18;5.55;;;;;;;12.49;62.23;99854.50;5015681;28;20128;-76
2020/12/02 09:26:33;;;;;;;5.70;4.03;;;;;;;12.97;60.99;99845.09;5033347;28;20539;-75
2020/12/02 09:29:01;;;;;;;5.18;3.60;;;;;;;13.12;60.78;99837.03;5027202;28;20166;-75
2020/12/02 09:31:29;;;;;;;3.50;2.80;;;;;;;13.24;60.63;99828.09;5034144;28;20101;-71
2020/12/02 09:33:55;;;;;;;4.85;2.90;;;;;;;13.44;59.56;99819.00;5031596;28;20037;-74
2020/12/02 09:36:23;;;;;;;3.55;3.17;;;;;;;14.02;58.37;99817.06;5032832;28;20158;-76
2020/12/02 09:38:50;;;;;;;6.90;2.90;;;;;;;13.49;59.60;99805.81;5019536;28;20087;-76
2020/12/02 09:41:44;;;;;;;4.78;2.80;;;;;;;14.13;57.78;99801.97;5025877;28;20033;-74
2020/12/02 09:44:21;;;;;;;3.60;2.83;;;;;;;14.27;57.18;99794.69;5015673;28;20060;-73
2020/12/02 09:46:59;;;;;;;3.78;2.45;;;;;;;14.34;56.71;99801.53;5033540;28;20033;-74
2020/12/02 09:49:25;;;;;;;5.05;2.63;;;;;;;14.43;56.46;99787.38;5034992;28;20151;-76
2020/12/02 09:52:40;;;;;;;4.13;2.45;;;;;;;14.62;55.54;99796.59;5015444;28;20444;-74
2020/12/02 09:55:24;;;;;;;3.22;2.30;;;;;;;14.45;56.33;99793.44;5020360;28;20045;-74
2020/12/02 09:57:51;;;;;;;3.85;2.60;;;;;;;14.62;55.89;99792.22;5034584;28;20140;-75
2020/12/02 10:00:19;;;;;;;4.88;2.65;;;;;;;14.68;55.60;99797.31;5030724;28;20063;-76
2020/12/02 10:03:14;;;;;;;9.43;4.13;;;;;;;14.17;56.87;99795.75;5026977;28;20511;-73
2020/12/02 10:06:09;;;;;;;4.82;2.90;;;;;;;13.83;58.45;99792.94;5040318;28;20036;-74
2020/12/02 10:08:42;;;;;;;5.45;2.40;;;;;;;13.50;58.63;99786.53;5032811;28;20034;-74
2020/12/02 10:11:39;;;;;;;4.35;2.60;;;;;;;13.57;58.74;99772.44;5043013;28;20111;-74
2020/12/02 10:14:24;;;;;;;5.80;2.63;;;;;;;13.79;58.45;99773.75;5041838;28;20053;-73
2020/12/02 10:17:26;;;;;;;4.25;2.55;;;;;;;13.30;59.74;99765.03;5054884;28;20147;-73
2020/12/02 10:20:02;;;;;;;4.40;3.03;;;;;;;12.83;60.51;99765.78;5048109;28;20060;-74
2020/12/02 10:22:49;;;;;;;4.60;2.90;;;;;;;12.70;61.03;99757.25;5034730;28;20079;-75
2020/12/02 10:25:32;;;;;;;5.93;3.13;;;;;;;13.25;59.55;99741.50;5024450;28;20472;-73
2020/12/02 10:28:34;;;;;;;3.38;2.97;;;;;;;12.45;62.50;99742.75;5010379;28;20065;-72
2020/12/02 10:31:19;;;;;;;2.90;2.55;;;;;;;12.88;60.69;99742.97;4999190;28;20033;-74
2020/12/02 10:34:18;;;;;;;4.97;2.33;;;;;;;13.24;59.97;99744.13;4997101;28;20056;-75
2020/12/02 10:36:50;;;;;;;5.20;2.88;;;;;;;12.84;61.30;99736.91;5003007;28;21058;-75
2020/12/02 10:39:24;;;;;;;3.53;2.80;;;;;;;12.57;62.07;99732.94;5003575;28;20057;-74
2020/12/02 10:42:08;;;;;;;5.22;2.55;;;;;;;12.95;61.23;99723.66;5015290;28;20052;-74
2020/12/02 10:44:45;;;;;;;3.10;2.53;;;;;;;13.38;59.70;99718.53;5014329;28;20033;-75
2020/12/02 10:47:54;;;;;;;5.35;2.60;;;;;;;13.73;58.62;99718.72;5020009;28;20116;-74
2020/12/02 10:50:24;;;;;;;4.70;2.58;;;;;;;14.27;57.27;99715.84;4967185;28;20042;-75
2020/12/02 10:52:53;;;;;;;2.13;1.90;;;;;;;14.19;56.62;99716.03;5001439;28;20109;-76
2020/12/02 10:55:23;;;;;;;1.63;1.52;;;;;;;14.68;55.95;99709.66;4999155;28;20099;-73
2020/12/02 10:58:01;;;;;;;3.65;1.95;;;;;;;15.01;55.07;99702.75;5004408;28;20029;-74
2020/12/02 11:00:27;;;;;;;2.65;1.85;;;;;;;15.77;52.90;99696.31;5025471;28;20036;-74
2020/12/02 11:03:18;;;;;;;1.65;1.52;;;;;;;16.77;49.24;99687.13;5042798;28;20143;-74
2020/12/02 11:06:11;;;;;;;2.65;1.10;;;;;;;16.84;49.21;99681.59;5027878;28;20037;-74
2020/12/02 11:08:42;;;;;;;1.05;0.95;;;;;;;15.77;51.62;99682.28;5052710;28;20021;-75
2020/12/02 11:11:36;;;;;;;1.98;0.90;;;;;;;16.15;50.76;99687.28;5044076;28;20071;-76
2020/12/02 11:14:17;;;;;;;0.50;0.50;;;;;;;16.05;50.90;99672.66;5063431;28;20398;-74
2020/12/02 11:17:02;;;;;;;0.32;0.28;;;;;;;16.83;48.59;99665.81;5049002;28;20068;-76
2020/12/02 11:19:46;;;;;;;0.40;0.25;;;;;;;18.64;44.90;99660.00;5058710;28;20058;-72
2020/12/02 11:22:30;;;;;;;0.57;0.43;;;;;;;19.15;42.88;99662.25;5046017;28;20095;-75
2020/12/02 11:25:08;;;;;;;0.35;0.30;;;;;;;17.64;45.79;99645.38;5049452;28;20028;-73
2020/12/02 11:27:33;;;;;;;0.20;0.20;;;;;;;16.45;49.15;99652.03;5043408;28;20029;-73
2020/12/02 11:30:01;;;;;;;2.08;0.30;;;;;;;15.60;51.36;99653.78;5064108;28;20036;-74
2020/12/02 11:32:45;;;;;;;2.85;0.30;;;;;;;14.45;55.25;99641.88;5038646;28;20024;-72
2020/12/02 11:35:33;;;;;;;0.60;0.30;;;;;;;13.66;58.19;99662.00;5053542;28;20041;-73
2020/12/02 11:38:04;;;;;;;1.35;0.50;;;;;;;12.49;61.10;99657.97;5048215;28;20033;-75
2020/12/02 11:40:55;;;;;;;2.53;0.65;;;;;;;12.32;60.11;99658.25;5026046;28;20387;-74
2020/12/02 11:43:48;;;;;;;2.83;0.63;;;;;;;12.29;60.38;99670.50;5045276;28;20029;-76
2020/12/02 11:46:18;;;;;;;2.33;0.70;;;;;;;12.46;59.01;99656.28;5037626;28;20583;-74